Time;durP1;ratioP1;P1;durP2;ratioP2;P2;SDS_P1;SDS_P2;PMS_P1;PMS_P2;Temp;Humidity;BMP_temperature;BMP_pressure;BME280_temperature;BME280_humidity;BME280_pressure;Samples;Min_cycle;Max_cycle;Signal;HPM_P1;HPM_P2
2022/10/26 00:02:21;;;;;;;17.80;11.27;;;10.60;99.90;;;;;;5053520;28;20041;-66
2022/10/26 00:04:47;;;;;;;20.98;12.00;;;10.70;99.90;;;;;;5052180;28;20125;-66
2022/10/26 00:07:12;;;;;;;17.75;10.82;;;10.60;99.90;;;;;;5084440;28;20131;-66
2022/10/26 00:09:38;;;;;;;21.40;11.60;;;10.60;99.90;;;;;;5085509;28;20086;-66
2022/10/26 00:12:04;;;;;;;15.25;10.25;;;10.60;99.90;;;;;;5052703;28;20055;-66
2022/10/26 00:14:29;;;;;;;21.67;12.23;;;10.60;99.90;;;;;;5052603;28;20040;-66
2022/10/26 00:16:55;;;;;;;17.08;10.98;;;10.60;99.90;;;;;;5068168;28;20044;-66
2022/10/26 00:19:21;;;;;;;21.13;12.77;;;10.60;99.90;;;;;;5052868;28;20041;-66
2022/10/26 00:21:47;;;;;;;19.65;10.80;;;10.60;99.90;;;;;;5084005;28;20045;-66
2022/10/26 00:24:13;;;;;;;20.25;11.38;;;10.60;99.90;;;;;;5052842;28;20037;-66
2022/10/26 00:26:39;;;;;;;17.30;10.82;;;10.60;99.90;;;;;;5084774;28;20048;-66
2022/10/26 00:29:05;;;;;;;19.27;11.70;;;10.60;99.90;;;;;;5084068;28;20049;-66
2022/10/26 00:31:31;;;;;;;16.83;11.50;;;10.60;99.90;;;;;;5052983;28;20033;-66
2022/10/26 00:33:57;;;;;;;20.05;12.10;;;10.50;99.90;;;;;;5083739;28;20041;-66
2022/10/26 00:36:24;;;;;;;23.52;11.60;;;10.50;99.90;;;;;;5034921;28;20135;-66
2022/10/26 00:38:52;;;;;;;19.85;11.57;;;10.50;99.90;;;;;;5084462;28;20153;-66
2022/10/26 00:41:20;;;;;;;17.98;11.75;;;10.50;99.90;;;;;;5084189;28;20074;-66
2022/10/26 00:43:46;;;;;;;16.98;11.70;;;10.50;99.90;;;;;;5084317;28;20531;-66
2022/10/26 00:46:45;;;;;;;18.05;11.77;;;10.50;99.90;;;;;;5085002;28;20382;-66
2022/10/26 00:49:15;;;;;;;19.70;12.10;;;10.60;99.90;;;;;;5050038;28;20080;-66
2022/10/26 00:51:50;;;;;;;19.63;11.23;;;10.50;99.90;;;;;;5067899;28;20115;-66
2022/10/26 00:54:17;;;;;;;18.77;11.88;;;10.60;99.90;;;;;;5052497;28;20076;-66
2022/10/26 00:56:45;;;;;;;18.13;10.95;;;10.60;99.90;;;;;;5083800;28;20044;-66
2022/10/26 00:59:13;;;;;;;21.25;11.90;;;10.60;99.90;;;;;;5085045;28;20083;-66
2022/10/26 01:01:42;;;;;;;20.42;11.20;;;10.60;99.90;;;;;;5084503;28;20048;-66
2022/10/26 01:04:09;;;;;;;18.83;10.63;;;10.50;99.90;;;;;;5083465;28;20049;-66
2022/10/26 01:06:36;;;;;;;18.48;9.82;;;10.50;99.90;;;;;;5052065;28;20052;-66
2022/10/26 01:09:03;;;;;;;20.42;11.32;;;10.50;99.90;;;;;;5051229;28;20083;-66
2022/10/26 01:11:29;;;;;;;20.25;10.57;;;10.50;99.90;;;;;;5084495;28;20036;-66
2022/10/26 01:13:57;;;;;;;21.02;10.85;;;10.50;99.90;;;;;;5033614;28;20048;-66
2022/10/26 01:16:34;;;;;;;16.10;10.35;;;10.50;99.90;;;;;;5051213;28;20052;-66
2022/10/26 01:19:09;;;;;;;16.65;9.95;;;10.50;99.90;;;;;;5052055;28;20052;-66
2022/10/26 01:22:06;;;;;;;16.08;10.07;;;10.50;99.90;;;;;;5052038;28;20440;-66
2022/10/26 01:24:31;;;;;;;14.90;9.13;;;10.50;99.90;;;;;;5049961;28;20052;-66
2022/10/26 01:27:06;;;;;;;14.55;9.40;;;10.50;99.90;;;;;;5051536;28;20448;-66
2022/10/26 01:29:40;;;;;;;15.63;10.27;;;10.50;99.90;;;;;;5084442;28;20448;-66
2022/10/26 01:32:35;;;;;;;21.30;10.15;;;10.50;99.90;;;;;;5051130;28;20390;-66
2022/10/26 01:35:26;;;;;;;19.23;10.25;;;10.50;99.90;;;;;;5046502;28;20049;-66
2022/10/26 01:38:10;;;;;;;15.82;10.02;;;10.50;99.90;;;;;;5031680;28;20045;-66
2022/10/26 01:40:43;;;;;;;14.70;9.25;;;10.40;99.90;;;;;;5084042;28;20099;-66
2022/10/26 01:43:12;;;;;;;13.05;9.50;;;10.50;99.90;;;;;;5051688;28;20033;-66
2022/10/26 01:45:41;;;;;;;14.65;9.20;;;10.40;99.90;;;;;;5083213;28;20390;-66
2022/10/26 01:48:08;;;;;;;17.58;10.68;;;10.40;99.90;;;;;;5033909;28;20083;-66
2022/10/26 01:50:35;;;;;;;15.38;9.48;;;10.40;99.90;;;;;;5067134;28;20076;-66
2022/10/26 01:53:00;;;;;;;17.65;9.88;;;10.30;99.90;;;;;;5082878;28;20071;-66
2022/10/26 01:55:42;;;;;;;18.48;9.98;;;10.30;99.90;;;;;;5051966;28;20033;-66
2022/10/26 01:58:45;;;;;;;19.10;9.82;;;10.30;99.90;;;;;;5083955;28;20041;-66
2022/10/26 02:01:56;;;;;;;16.33;10.00;;;10.30;99.90;;;;;;5084101;28;20052;-66
2022/10/26 02:04:38;;;;;;;19.38;10.02;;;10.30;99.90;;;;;;5049094;28;20049;-66
2022/10/26 02:07:19;;;;;;;16.52;9.25;;;10.30;99.90;;;;;;5082916;28;20439;-66
2022/10/26 02:10:30;;;;;;;16.65;10.27;;;10.30;99.90;;;;;;5083535;28;20045;-66
2022/10/26 02:13:14;;;;;;;16.92;9.43;;;10.30;99.90;;;;;;5031582;28;20106;-66
2022/10/26 02:16:04;;;;;;;14.60;9.68;;;10.20;99.90;;;;;;5032702;28;20048;-66
2022/10/26 02:18:30;;;;;;;17.05;9.27;;;10.20;99.90;;;;;;5046495;28;20615;-66
2022/10/26 02:21:07;;;;;;;16.15;9.50;;;10.20;99.90;;;;;;5082459;28;20041;-66
2022/10/26 02:23:36;;;;;;;12.40;7.90;;;10.20;99.90;;;;;;5051538;28;20044;-66
2022/10/26 02:26:07;;;;;;;13.35;8.43;;;10.20;99.90;;;;;;5051335;28;20051;-66
2022/10/26 02:28:40;;;;;;;16.83;9.60;;;10.20;99.90;;;;;;5051533;28;20131;-66
2022/10/26 02:31:07;;;;;;;15.07;9.43;;;10.20;99.90;;;;;;5054885;28;20494;-66
2022/10/26 02:33:37;;;;;;;16.70;9.18;;;10.20;99.90;;;;;;5054000;28;20413;-66
2022/10/26 02:36:07;;;;;;;16.60;9.35;;;10.10;99.90;;;;;;5087000;28;20120;-66
2022/10/26 02:38:34;;;;;;;14.60;8.80;;;10.10;99.90;;;;;;5087161;28;20045;-66
2022/10/26 02:41:01;;;;;;;12.70;8.50;;;10.10;99.90;;;;;;5053930;28;20059;-66
2022/10/26 02:43:28;;;;;;;13.40;8.90;;;10.10;99.90;;;;;;5054899;28;20041;-66
2022/10/26 02:46:02;;;;;;;15.48;9.40;;;10.10;99.90;;;;;;5086466;28;20076;-66
2022/10/26 02:48:27;;;;;;;13.88;7.90;;;10.10;99.90;;;;;;5054220;28;20041;-66
2022/10/26 02:50:59;;;;;;;15.95;8.98;;;10.10;99.90;;;;;;5054217;28;20039;-66
2022/10/26 02:53:31;;;;;;;17.75;9.65;;;10.10;99.90;;;;;;5054805;28;20037;-66
2022/10/26 02:56:02;;;;;;;15.38;9.60;;;10.00;99.90;;;;;;5085679;28;20068;-66
2022/10/26 02:58:31;;;;;;;14.10;9.45;;;10.00;99.90;;;;;;5086781;28;20548;-66
2022/10/26 03:00:58;;;;;;;14.70;9.52;;;9.90;99.90;;;;;;5053867;28;20063;-66
2022/10/26 03:03:24;;;;;;;18.52;9.50;;;9.90;99.90;;;;;;5053766;28;20493;-66
2022/10/26 03:05:50;;;;;;;19.30;10.15;;;9.90;99.90;;;;;;5053804;28;20052;-66
2022/10/26 03:08:15;;;;;;;12.95;8.65;;;9.90;99.90;;;;;;5053382;28;20041;-66
2022/10/26 03:10:43;;;;;;;17.65;9.57;;;9.90;99.90;;;;;;5085666;28;20037;-66
2022/10/26 03:13:10;;;;;;;18.60;10.93;;;9.80;99.90;;;;;;5086478;28;20512;-66
2022/10/26 03:15:36;;;;;;;13.15;9.52;;;9.80;99.90;;;;;;5085983;28;20076;-66
2022/10/26 03:18:02;;;;;;;15.25;10.00;;;9.80;99.90;;;;;;5054069;28;20064;-66
2022/10/26 03:20:28;;;;;;;18.33;11.02;;;9.80;99.90;;;;;;5053827;28;20044;-66
2022/10/26 03:22:55;;;;;;;18.65;11.95;;;9.80;99.90;;;;;;5085097;28;20142;-66
2022/10/26 03:25:22;;;;;;;19.00;11.35;;;9.70;99.90;;;;;;5054102;28;20134;-66
2022/10/26 03:27:59;;;;;;;22.88;11.68;;;9.70;99.90;;;;;;5053122;28;20037;-66
2022/10/26 03:30:25;;;;;;;18.65;11.38;;;9.80;99.90;;;;;;5053485;28;20049;-66
2022/10/26 03:32:51;;;;;;;17.88;12.82;;;9.80;99.90;;;;;;5085837;28;20041;-66
2022/10/26 03:35:17;;;;;;;18.48;11.57;;;9.80;99.90;;;;;;5053990;28;20375;-66
2022/10/26 03:37:42;;;;;;;22.73;12.65;;;9.80;99.90;;;;;;5068089;28;20503;-66
2022/10/26 03:40:09;;;;;;;19.52;12.63;;;9.80;99.90;;;;;;5052164;28;20398;-66
2022/10/26 03:42:38;;;;;;;21.45;13.55;;;9.80;99.90;;;;;;5053370;28;20045;-66
2022/10/26 03:45:04;;;;;;;20.40;13.20;;;9.80;99.90;;;;;;5085189;28;20045;-66
2022/10/26 03:47:30;;;;;;;19.67;13.52;;;9.80;99.90;;;;;;5052195;28;20048;-66
2022/10/26 03:49:56;;;;;;;20.23;13.43;;;9.80;99.90;;;;;;5053198;28;20036;-66
2022/10/26 03:52:23;;;;;;;20.58;14.38;;;9.80;99.90;;;;;;5085119;28;20033;-66
2022/10/26 03:54:48;;;;;;;17.33;12.18;;;9.80;99.90;;;;;;5085132;28;20486;-66
2022/10/26 03:57:14;;;;;;;18.60;12.80;;;9.80;99.90;;;;;;5086134;28;20098;-66
2022/10/26 03:59:40;;;;;;;17.25;11.90;;;9.80;99.90;;;;;;5051426;28;20124;-66
2022/10/26 04:02:06;;;;;;;17.63;11.85;;;9.90;99.90;;;;;;5035447;28;20079;-66
2022/10/26 04:04:31;;;;;;;22.35;13.95;;;9.90;99.90;;;;;;5053349;28;20504;-66
2022/10/26 04:06:57;;;;;;;22.85;13.88;;;9.90;99.90;;;;;;5051923;28;20078;-66
2022/10/26 04:09:23;;;;;;;19.58;13.63;;;9.90;99.90;;;;;;5085544;28;20379;-66
2022/10/26 04:11:48;;;;;;;20.52;12.70;;;9.90;99.90;;;;;;5084972;28;20048;-66
2022/10/26 04:14:14;;;;;;;20.17;12.82;;;9.90;99.90;;;;;;5052557;28;20068;-65
2022/10/26 04:16:40;;;;;;;17.92;11.32;;;9.90;99.90;;;;;;5084901;28;20056;-66
2022/10/26 04:19:06;;;;;;;20.00;12.98;;;9.90;99.90;;;;;;5051935;28;20051;-66
2022/10/26 04:21:32;;;;;;;18.30;12.38;;;9.90;99.90;;;;;;5085618;28;20033;-66
2022/10/26 04:23:57;;;;;;;21.48;13.77;;;10.00;99.90;;;;;;5034623;28;20041;-66
2022/10/26 04:26:23;;;;;;;25.00;13.90;;;10.00;99.90;;;;;;5084458;28;20037;-66
2022/10/26 04:28:49;;;;;;;19.55;12.60;;;10.00;99.90;;;;;;5084502;28;20057;-66
2022/10/26 04:31:15;;;;;;;21.75;13.80;;;10.10;99.90;;;;;;5051385;28;20051;-66
2022/10/26 04:33:40;;;;;;;20.88;13.85;;;10.10;99.90;;;;;;5051809;28;20040;-66
2022/10/26 04:36:06;;;;;;;19.52;13.07;;;10.10;99.90;;;;;;5084822;28;20073;-66
2022/10/26 04:38:32;;;;;;;17.67;12.27;;;10.20;99.90;;;;;;5052468;28;20409;-66
2022/10/26 04:41:03;;;;;;;22.20;12.70;;;10.20;99.90;;;;;;5051296;28;20037;-66
2022/10/26 04:43:29;;;;;;;22.10;14.40;;;10.20;99.90;;;;;;5034832;28;20048;-66
2022/10/26 04:45:55;;;;;;;18.15;12.85;;;10.20;99.90;;;;;;5034084;28;20083;-66
2022/10/26 04:48:21;;;;;;;18.35;13.25;;;10.20;99.90;;;;;;5083995;28;20041;-66
2022/10/26 04:50:47;;;;;;;18.50;12.85;;;10.30;99.90;;;;;;5083949;28;20048;-66
2022/10/26 04:53:13;;;;;;;20.45;13.20;;;10.30;99.90;;;;;;5084618;28;20052;-66
2022/10/26 04:55:38;;;;;;;19.08;13.80;;;10.40;99.90;;;;;;5067109;28;20043;-66
2022/10/26 04:58:05;;;;;;;21.85;14.27;;;10.40;99.90;;;;;;5052091;28;20067;-66
2022/10/26 05:00:31;;;;;;;24.45;14.85;;;10.50;99.90;;;;;;5052206;28;20086;-66
2022/10/26 05:03:05;;;;;;;21.52;15.15;;;10.50;99.90;;;;;;5083883;28;20040;-66
2022/10/26 05:05:33;;;;;;;22.70;14.77;;;10.50;99.90;;;;;;5084592;28;20044;-66
2022/10/26 05:07:59;;;;;;;20.70;13.50;;;10.50;99.90;;;;;;5084299;28;20045;-66
2022/10/26 05:10:26;;;;;;;21.70;14.10;;;10.50;99.90;;;;;;5033533;28;20041;-66
2022/10/26 05:12:56;;;;;;;18.55;14.38;;;10.50;99.90;;;;;;5051712;28;20461;-66
2022/10/26 05:15:22;;;;;;;31.10;14.57;;;10.50;99.90;;;;;;5051312;28;20072;-66
2022/10/26 05:17:55;;;;;;;23.80;13.52;;;10.50;99.90;;;;;;5084190;28;20155;-66
2022/10/26 05:20:27;;;;;;;25.33;14.15;;;10.60;99.90;;;;;;5050968;28;20401;-66
2022/10/26 05:22:53;;;;;;;22.00;13.85;;;10.60;99.90;;;;;;5050890;28;20489;-66
2022/10/26 05:25:18;;;;;;;23.00;13.73;;;10.60;99.90;;;;;;5084436;28;20123;-66
2022/10/26 05:27:44;;;;;;;20.00;13.85;;;10.50;99.90;;;;;;5051578;28;20128;-66
2022/10/26 05:30:10;;;;;;;23.52;15.07;;;10.60;99.90;;;;;;5083576;28;20045;-65
2022/10/26 05:32:36;;;;;;;23.63;14.23;;;10.60;99.90;;;;;;5051741;28;20029;-66
2022/10/26 05:35:01;;;;;;;21.95;13.45;;;10.70;99.90;;;;;;5051622;28;20406;-66
2022/10/26 05:37:28;;;;;;;22.48;14.95;;;10.70;99.90;;;;;;5051538;28;20413;-66
2022/10/26 05:39:54;;;;;;;18.38;14.73;;;10.70;99.90;;;;;;5083701;28;20049;-66
2022/10/26 05:42:19;;;;;;;20.67;14.10;;;10.70;99.90;;;;;;5084285;28;20052;-66
2022/10/26 05:44:45;;;;;;;21.90;14.88;;;10.70;99.90;;;;;;5032560;28;20126;-66
2022/10/26 05:47:11;;;;;;;22.30;16.58;;;10.70;99.90;;;;;;5084296;28;20076;-66
2022/10/26 05:49:37;;;;;;;26.02;15.77;;;10.70;99.90;;;;;;5051805;28;20045;-66
2022/10/26 05:52:03;;;;;;;23.73;15.85;;;10.70;99.90;;;;;;5051051;28;20043;-66
2022/10/26 05:54:28;;;;;;;25.27;17.00;;;10.80;99.90;;;;;;5051677;28;20095;-66
2022/10/26 05:56:54;;;;;;;19.95;14.02;;;10.70;99.90;;;;;;5050036;28;20076;-66
2022/10/26 05:59:21;;;;;;;18.95;13.25;;;10.70;99.90;;;;;;5050900;28;20044;-66
2022/10/26 06:02:22;;;;;;;22.30;15.15;;;10.70;99.90;;;;;;5066771;28;20040;-66
2022/10/26 06:04:49;;;;;;;20.92;14.25;;;10.80;99.90;;;;;;5085977;28;20037;-66
2022/10/26 06:07:19;;;;;;;22.80;15.77;;;10.70;99.90;;;;;;5055534;28;20041;-66
2022/10/26 06:09:45;;;;;;;21.88;15.07;;;10.80;99.90;;;;;;5054994;28;20041;-65
2022/10/26 06:12:12;;;;;;;19.92;13.07;;;10.80;99.90;;;;;;5054631;28;20127;-66
2022/10/26 06:14:38;;;;;;;19.63;13.85;;;10.80;99.90;;;;;;5087483;28;20118;-66
2022/10/26 06:17:29;;;;;;;23.10;13.32;;;10.80;99.90;;;;;;5087517;28;20553;-66
2022/10/26 06:19:57;;;;;;;15.80;11.73;;;10.80;99.90;;;;;;5086333;28;20055;-66
2022/10/26 06:22:54;;;;;;;23.67;12.57;;;10.80;99.90;;;;;;5070589;28;20041;-66
2022/10/26 06:25:54;;;;;;;17.77;12.65;;;10.90;99.90;;;;;;5055503;28;20073;-66
2022/10/26 06:28:35;;;;;;;18.42;13.13;;;10.90;99.90;;;;;;5050127;28;20421;-66
2022/10/26 06:31:01;;;;;;;20.63;12.95;;;10.90;99.90;;;;;;5054787;28;20045;-66
2022/10/26 06:33:28;;;;;;;21.23;13.55;;;10.90;99.90;;;;;;5054526;28;20456;-66
2022/10/26 06:36:01;;;;;;;20.80;13.20;;;10.90;99.90;;;;;;5036936;28;20040;-66
2022/10/26 06:38:30;;;;;;;18.95;12.90;;;10.90;99.90;;;;;;5087433;28;20045;-66
2022/10/26 06:40:56;;;;;;;19.30;12.80;;;10.90;99.90;;;;;;5053658;28;20037;-66
2022/10/26 06:43:29;;;;;;;17.42;12.38;;;10.90;99.90;;;;;;5087467;28;20048;-66
2022/10/26 06:46:15;;;;;;;16.85;12.55;;;10.90;99.90;;;;;;5054208;28;20084;-66
2022/10/26 06:48:48;;;;;;;;;;;10.90;99.90;;;;;;5054133;28;20478;-66
2022/10/26 06:51:16;;;;;;;19.35;12.35;;;10.90;99.90;;;;;;5053519;28;20377;-65
2022/10/26 06:53:44;;;;;;;19.10;12.38;;;10.90;99.90;;;;;;5053629;28;20037;-65
2022/10/26 06:56:11;;;;;;;17.75;12.35;;;10.90;99.90;;;;;;5086906;28;20044;-66
2022/10/26 06:58:39;;;;;;;18.85;12.48;;;10.90;99.90;;;;;;5054560;28;20048;-65
2022/10/26 07:01:05;;;;;;;20.45;13.48;;;10.90;99.90;;;;;;5053758;28;20048;-66
2022/10/26 07:03:31;;;;;;;21.45;13.50;;;10.90;99.90;;;;;;5054364;28;20041;-70
2022/10/26 07:05:57;;;;;;;22.00;13.68;;;11.00;99.90;;;;;;5053838;28;20044;-71
2022/10/26 07:08:23;;;;;;;22.35;13.73;;;11.00;99.90;;;;;;5086115;28;20041;-67
2022/10/26 07:10:48;;;;;;;19.20;12.93;;;11.00;99.90;;;;;;5086064;28;20036;-75
2022/10/26 07:13:14;;;;;;;17.45;12.38;;;11.00;99.90;;;;;;5054526;28;20125;-67
2022/10/26 07:15:41;;;;;;;21.88;13.45;;;11.00;99.90;;;;;;5035290;28;20132;-66
2022/10/26 07:18:08;;;;;;;17.63;11.73;;;11.00;99.90;;;;;;5048345;28;20044;-66
2022/10/26 07:20:38;;;;;;;18.92;11.68;;;11.10;99.90;;;;;;5051815;28;20048;-67
2022/10/26 07:23:09;;;;;;;14.65;11.55;;;11.10;99.90;;;;;;5050805;28;20397;-66
2022/10/26 07:25:58;;;;;;;18.73;11.60;;;11.10;99.90;;;;;;5051161;28;20494;-66
2022/10/26 07:28:23;;;;;;;19.25;11.77;;;11.20;99.90;;;;;;5067000;28;20131;-67
2022/10/26 07:30:49;;;;;;;16.38;12.23;;;11.20;99.90;;;;;;5049063;28;20580;-67
2022/10/26 07:33:15;;;;;;;15.60;11.52;;;11.20;99.90;;;;;;5051486;28;20591;-67
2022/10/26 07:35:41;;;;;;;19.83;11.68;;;11.30;99.90;;;;;;5047282;28;20049;-67
2022/10/26 07:38:07;;;;;;;15.27;10.27;;;11.30;99.90;;;;;;5048866;28;20045;-67
2022/10/26 07:40:33;;;;;;;22.58;10.70;;;11.40;99.90;;;;;;5051176;28;20055;-66
2022/10/26 07:42:59;;;;;;;16.55;11.00;;;11.40;99.90;;;;;;5048820;28;20398;-66
2022/10/26 07:45:27;;;;;;;17.35;10.68;;;11.50;99.90;;;;;;5047626;28;20059;-66
2022/10/26 07:47:52;;;;;;;16.67;10.77;;;11.50;99.90;;;;;;5048410;28;20055;-67
2022/10/26 07:50:18;;;;;;;19.40;10.80;;;11.50;99.90;;;;;;5048409;28;20041;-66
2022/10/26 07:52:44;;;;;;;14.93;9.82;;;11.60;99.90;;;;;;5048401;28;20568;-67
2022/10/26 07:55:10;;;;;;;15.77;10.18;;;11.70;99.90;;;;;;5048003;28;20094;-67
2022/10/26 07:57:36;;;;;;;16.65;10.05;;;11.70;99.90;;;;;;5049263;28;20110;-67
2022/10/26 08:00:05;;;;;;;14.68;11.10;;;11.80;99.90;;;;;;5049360;28;20041;-67
2022/10/26 08:02:33;;;;;;;17.73;10.93;;;11.80;99.90;;;;;;5048345;28;20037;-67
2022/10/26 08:04:59;;;;;;;13.88;10.27;;;11.80;99.90;;;;;;5047659;28;20053;-66
2022/10/26 08:07:25;;;;;;;14.68;9.75;;;11.90;99.90;;;;;;5047850;28;20091;-67
2022/10/26 08:09:51;;;;;;;13.93;8.98;;;11.90;99.90;;;;;;5030214;28;20530;-67
2022/10/26 08:12:17;;;;;;;15.32;9.15;;;11.90;99.90;;;;;;5048691;28;20037;-66
2022/10/26 08:14:42;;;;;;;14.10;9.45;;;11.90;99.90;;;;;;5048026;28;20473;-67
2022/10/26 08:17:08;;;;;;;14.68;9.10;;;12.00;99.90;;;;;;5029218;28;20417;-67
2022/10/26 08:19:34;;;;;;;12.93;8.00;;;12.00;99.90;;;;;;5048179;28;20052;-67
2022/10/26 08:22:00;;;;;;;12.20;8.05;;;12.10;99.90;;;;;;5047392;28;20532;-66
2022/10/26 08:24:25;;;;;;;13.20;8.75;;;12.10;99.90;;;;;;5048621;28;20040;-66
2022/10/26 08:26:51;;;;;;;13.60;7.90;;;12.20;99.90;;;;;;5047756;28;20088;-67
2022/10/26 08:29:17;;;;;;;12.77;7.88;;;12.30;99.90;;;;;;5048507;28;20045;-67
2022/10/26 08:31:43;;;;;;;12.68;7.20;;;12.40;99.90;;;;;;5051790;28;20029;-67
2022/10/26 08:34:09;;;;;;;10.15;6.57;;;12.50;99.90;;;;;;5049568;28;20047;-67
2022/10/26 08:36:34;;;;;;;14.68;7.55;;;12.60;99.90;;;;;;5052024;28;20049;-67
2022/10/26 08:39:00;;;;;;;13.38;6.72;;;12.70;99.90;;;;;;5051995;28;20080;-66
2022/10/26 08:41:51;;;;;;;11.50;6.60;;;12.80;99.90;;;;;;5050002;28;20036;-67
2022/10/26 08:44:28;;;;;;;10.10;6.38;;;12.90;99.90;;;;;;5050774;28;20063;-67
2022/10/26 08:47:02;;;;;;;11.85;6.28;;;13.00;99.90;;;;;;5048852;28;20037;-67
2022/10/26 08:49:59;;;;;;;12.13;7.05;;;13.10;99.90;;;;;;5052040;28;20037;-67
2022/10/26 08:53:02;;;;;;;12.25;7.05;;;13.20;99.90;;;;;;5047440;28;20049;-68
2022/10/26 08:55:37;;;;;;;12.95;6.55;;;13.20;99.90;;;;;;5046868;28;20052;-68
2022/10/26 08:58:06;;;;;;;14.65;6.80;;;13.30;99.90;;;;;;5050760;28;20045;-68
2022/10/26 09:00:32;;;;;;;10.65;5.90;;;13.40;99.90;;;;;;5050829;28;20048;-68
2022/10/26 09:02:58;;;;;;;9.73;5.63;;;13.40;99.90;;;;;;5050372;28;20498;-68
2022/10/26 09:05:37;;;;;;;9.13;5.45;;;13.50;99.90;;;;;;5052487;28;20116;-67
2022/10/26 09:08:18;;;;;;;11.52;5.47;;;13.60;99.90;;;;;;5049451;28;20397;-68
2022/10/26 09:11:10;;;;;;;9.18;5.10;;;13.60;99.90;;;;;;5051699;28;20048;-68
2022/10/26 09:13:46;;;;;;;13.27;5.10;;;13.70;99.90;;;;;;5052181;28;20460;-68
2022/10/26 09:16:31;;;;;;;10.95;5.68;;;13.80;99.90;;;;;;5050148;28;20055;-68
2022/10/26 09:19:23;;;;;;;10.00;5.35;;;13.90;99.90;;;;;;5049885;28;20041;-67
2022/10/26 09:22:14;;;;;;;11.18;5.05;;;14.10;99.90;;;;;;5050610;28;20040;-68
2022/10/26 09:24:51;;;;;;;12.65;4.88;;;14.30;99.90;;;;;;5044507;28;20037;-68
2022/10/26 09:27:27;;;;;;;8.88;4.00;;;14.40;99.90;;;;;;5051805;28;20033;-70
2022/10/26 09:29:56;;;;;;;10.95;4.35;;;14.50;99.90;;;;;;5050711;28;20257;-71
2022/10/26 09:32:43;;;;;;;9.07;4.38;;;14.60;99.90;;;;;;5052224;28;20045;-67
2022/10/26 09:35:35;;;;;;;12.50;4.55;;;14.70;99.90;;;;;;5050700;28;20094;-68
2022/10/26 09:38:14;;;;;;;8.40;4.03;;;14.70;99.90;;;;;;5052040;28;20102;-62
2022/10/26 09:40:56;;;;;;;9.77;4.15;;;14.80;99.90;;;;;;5088201;28;20045;-62
2022/10/26 09:43:35;;;;;;;8.35;5.07;;;14.90;99.90;;;;;;5054335;28;20045;-62
2022/10/26 09:46:00;;;;;;;8.32;4.10;;;14.90;99.90;;;;;;5054195;28;20132;-62
2022/10/26 09:48:45;;;;;;;8.98;4.40;;;14.90;99.90;;;;;;5087968;28;20116;-62
2022/10/26 09:51:10;;;;;;;8.82;4.70;;;15.00;99.90;;;;;;5054044;28;20044;-61
2022/10/26 09:53:36;;;;;;;8.45;4.00;;;15.00;99.90;;;;;;5055200;28;20040;-62
2022/10/26 09:56:07;;;;;;;9.55;4.47;;;15.00;99.90;;;;;;5055601;28;20072;-62
2022/10/26 09:58:46;;;;;;;8.77;3.90;;;15.00;99.90;;;;;;5054223;28;20041;-62
2022/10/26 10:01:31;;;;;;;11.52;4.35;;;15.00;99.90;;;;;;5055479;28;20102;-62
2022/10/26 10:04:12;;;;;;;;;;;15.10;99.90;;;;;;5032759;28;20256;-61
2022/10/26 10:06:38;;;;;;;8.70;5.60;;;15.10;99.90;;;;;;5050235;28;20364;-61
2022/10/26 10:09:09;;;;;;;10.20;4.82;;;15.10;99.90;;;;;;5051426;28;20098;-62
2022/10/26 10:11:57;;;;;;;11.10;4.72;;;15.20;99.90;;;;;;5033573;28;20545;-62
2022/10/26 10:14:30;;;;;;;7.40;4.13;;;15.20;99.90;;;;;;5034355;28;20041;-62
2022/10/26 10:16:56;;;;;;;7.03;3.88;;;15.20;99.90;;;;;;5034094;28;20445;-62
2022/10/26 10:19:24;;;;;;;8.95;4.68;;;15.20;99.90;;;;;;5034619;28;20037;-62
2022/10/26 10:21:52;;;;;;;9.82;4.93;;;15.20;99.90;;;;;;5033921;28;20481;-62
2022/10/26 10:24:24;;;;;;;7.78;4.25;;;15.20;99.90;;;;;;5035271;28;20045;-63
2022/10/26 10:27:03;;;;;;;8.90;4.45;;;15.20;99.90;;;;;;5033019;28;20037;-62
2022/10/26 10:29:31;;;;;;;8.27;4.03;;;15.30;99.90;;;;;;5035037;28;20108;-62
2022/10/26 10:31:59;;;;;;;7.75;3.78;;;15.30;99.90;;;;;;5034114;28;20121;-62
2022/10/26 10:34:25;;;;;;;6.10;3.55;;;15.40;99.90;;;;;;5033768;28;20471;-61
2022/10/26 10:36:52;;;;;;;8.73;3.78;;;15.40;99.90;;;;;;5033223;28;20043;-61
2022/10/26 10:39:39;;;;;;;7.28;3.65;;;15.50;99.90;;;;;;5034291;28;20052;-61
2022/10/26 10:42:15;;;;;;;8.45;3.92;;;15.50;99.90;;;;;;5033552;28;20057;-61
2022/10/26 10:44:43;;;;;;;8.13;4.28;;;15.50;99.90;;;;;;5033658;28;20041;-61
2022/10/26 10:47:21;;;;;;;8.40;3.63;;;15.60;99.90;;;;;;5033921;28;20037;-61
2022/10/26 10:50:01;;;;;;;9.32;4.38;;;15.60;99.90;;;;;;5033783;28;20057;-61
2022/10/26 10:52:33;;;;;;;10.20;4.10;;;15.70;99.90;;;;;;5035018;28;20030;-61
2022/10/26 10:55:13;;;;;;;12.15;4.63;;;15.70;99.90;;;;;;5033783;28;20143;-61
2022/10/26 10:57:59;;;;;;;7.47;3.30;;;15.70;99.90;;;;;;5033078;28;20045;-62
2022/10/26 11:00:25;;;;;;;8.57;4.30;;;15.80;99.90;;;;;;5032940;28;20049;-61
2022/10/26 11:03:03;;;;;;;9.32;3.88;;;15.80;99.90;;;;;;5034056;28;20449;-61
2022/10/26 11:05:43;;;;;;;7.22;3.70;;;15.90;99.90;;;;;;5034825;28;20037;-61
2022/10/26 11:08:16;;;;;;;7.85;3.60;;;16.00;99.90;;;;;;5032192;28;20145;-61
2022/10/26 11:10:56;;;;;;;9.05;3.45;;;16.10;99.90;;;;;;5033144;28;20038;-61
2022/10/26 11:13:54;;;;;;;10.10;3.58;;;16.20;99.90;;;;;;5033377;28;20073;-61
2022/10/26 11:16:29;;;;;;;9.50;3.67;;;16.30;99.90;;;;;;5033389;28;20053;-61
2022/10/26 11:19:05;;;;;;;11.45;3.70;;;16.40;99.90;;;;;;5033845;28;20087;-61
2022/10/26 11:21:38;;;;;;;8.70;3.90;;;16.50;99.90;;;;;;5033669;28;20124;-61
2022/10/26 11:24:28;;;;;;;6.95;3.20;;;16.60;99.90;;;;;;5032843;28;20049;-61
2022/10/26 11:26:58;;;;;;;8.88;4.10;;;16.60;99.90;;;;;;5033622;28;20422;-61
2022/10/26 11:29:30;;;;;;;10.05;3.85;;;16.70;99.90;;;;;;5031955;28;20517;-61
2022/10/26 11:32:36;;;;;;;7.15;3.65;;;16.80;99.90;;;;;;5032428;28;20095;-61
2022/10/26 11:35:37;;;;;;;;;;;16.80;99.90;;;;;;5029950;28;20053;-62
2022/10/26 11:38:23;;;;;;;7.25;3.67;;;16.80;99.90;;;;;;4992244;28;19924;-61
2022/10/26 11:41:13;;;;;;;12.50;3.67;;;16.90;99.90;;;;;;5030577;28;20049;-62
2022/10/26 11:43:56;;;;;;;17.33;5.07;;;16.90;99.90;;;;;;5031436;28;20049;-63
2022/10/26 11:46:35;;;;;;;9.00;3.72;;;16.90;99.90;;;;;;5015952;28;20132;-63
2022/10/26 11:49:12;;;;;;;7.22;3.78;;;16.90;99.90;;;;;;5033587;28;20052;-63
2022/10/26 11:51:49;;;;;;;9.13;4.80;;;17.00;99.90;;;;;;5033429;28;20482;-63
2022/10/26 11:54:39;;;;;;;8.05;4.57;;;17.00;99.90;;;;;;5032409;28;20053;-63
2022/10/26 11:57:05;;;;;;;9.43;4.20;;;17.00;99.90;;;;;;5032629;28;20046;-62
2022/10/26 11:59:38;;;;;;;6.63;4.00;;;17.00;99.90;;;;;;5033728;28;20494;-63
2022/10/26 12:02:18;;;;;;;8.10;4.55;;;17.00;99.90;;;;;;5032203;28;20237;-63
2022/10/26 12:04:48;;;;;;;7.65;4.22;;;17.00;99.90;;;;;;5031307;28;20056;-62
2022/10/26 12:07:39;;;;;;;19.58;4.45;;;17.00;99.90;;;;;;5033418;28;20550;-62
2022/10/26 12:10:24;;;;;;;11.75;5.53;;;17.00;99.90;;;;;;5031883;28;20050;-62
2022/10/26 12:13:14;;;;;;;8.77;4.40;;;17.00;99.90;;;;;;5031593;28;20440;-62
2022/10/26 12:15:55;;;;;;;9.95;4.32;;;17.10;99.90;;;;;;5027576;28;20045;-62
2022/10/26 12:18:25;;;;;;;9.60;4.43;;;17.10;99.90;;;;;;5031235;28;20042;-61
2022/10/26 12:21:03;;;;;;;9.57;4.82;;;17.10;99.90;;;;;;5032674;28;20414;-62
2022/10/26 12:24:21;;;;;;;9.48;4.72;;;17.00;99.90;;;;;;5109960;27;20481;-60
2022/10/26 12:26:57;;;;;;;11.73;4.72;;;17.00;99.90;;;;;;5070784;28;20081;-61
2022/10/26 12:29:35;;;;;;;10.05;4.55;;;17.00;99.90;;;;;;5089397;28;20141;-61
2022/10/26 12:32:24;;;;;;;12.35;5.75;;;17.00;99.90;;;;;;5070878;28;20478;-61
2022/10/26 12:34:49;;;;;;;8.20;4.97;;;17.00;99.90;;;;;;5088837;28;20511;-61
2022/10/26 12:37:34;;;;;;;9.02;5.63;;;17.00;99.90;;;;;;5071766;28;20044;-61
2022/10/26 12:40:37;;;;;;;10.77;5.85;;;17.10;99.90;;;;;;5070172;28;20055;-60
2022/10/26 12:43:12;;;;;;;9.27;5.32;;;17.10;99.90;;;;;;5070849;28;20048;-61
2022/10/26 12:45:38;;;;;;;10.32;6.15;;;17.10;99.90;;;;;;5069911;28;20106;-61
2022/10/26 12:48:20;;;;;;;12.27;6.10;;;17.10;99.90;;;;;;5070894;28;20047;-60
2022/10/26 12:50:52;;;;;;;9.88;5.90;;;17.10;99.90;;;;;;5070655;28;20043;-61
2022/10/26 12:53:20;;;;;;;9.20;6.03;;;17.20;99.90;;;;;;5088510;28;20397;-61
2022/10/26 12:55:46;;;;;;;12.27;6.40;;;17.20;99.90;;;;;;5070595;28;20505;-61
2022/10/26 12:58:31;;;;;;;11.15;7.05;;;17.20;99.90;;;;;;5071181;28;20059;-61
2022/10/26 13:00:56;;;;;;;11.50;6.85;;;17.20;99.90;;;;;;5069882;28;20079;-62
2022/10/26 13:03:54;;;;;;;12.10;7.68;;;17.20;99.90;;;;;;5070952;28;20080;-60